Leonie — PHLE — position and weather

sailwx.info

Track history (hours):
 
Tides and Currents Weather Stations Pressure Air Temp Water Temp Dewpoint Dewpoint Depression Visibility Wind Speed Wind Dir Waves Ship Positions

Leonie

Last reported at 2014-Dec-18 09:31 UTC. Time now 2014-Dec-22 04:12 UTC.
Position N 59°58' E 024°04'.

Date/timePositionNaut miles runAvg speedWind from/ knotsBaromVisibWave heightAir tempDewpointWater temp
2014-Dec-18 09:31N 59°58' E 024°04'  
2014-Dec-15 06:07N 55°39' E 015°30'610.4
2014-Dec-15 05:30N 55°36' E 015°20'1010.6
2014-Dec-15 04:33N 55°31' E 015°04'1110.9
2014-Dec-15 03:33N 55°26' E 014°47'1111.0
2014-Dec-15 02:33N 55°18' E 014°33'1111.1
2014-Dec-15 01:33N 55°09' E 014°21'1111.3
2014-Dec-15 00:33N 55°01' E 014°09'1110.7
2014-Dec-14 23:33N 54°56' E 013°52'1110.9
2014-Dec-14 22:30N 54°52' E 013°33'3711.4
2014-Dec-14 19:16N 54°38' E 012°34'912.0
2014-Dec-14 18:33N 54°33' E 012°22'1111.3
2014-Dec-14 17:34N 54°25' E 012°09'1110.6
2014-Dec-14 16:34N 54°25' E 011°51'4411.0
2014-Dec-14 12:31N 54°32' E 010°35'1110.9
2014-Dec-14 11:33N 54°29' E 010°18'9 8.6
2014-Dec-14 10:33N 54°22' E 010°09'1 1.5
2014-Dec-14 09:33N 54°22' E 010°06'6 5.9
2014-Dec-14 08:33N 54°20' E 009°57'5 4.9
2014-Dec-14 07:33N 54°22' E 009°49'11 7.9
2014-Dec-14 06:10N 54°14' E 009°36'6 8.3
2014-Dec-14 05:27N 54°11' E 009°27'5 5.6
2014-Dec-14 04:32N 54°08' E 009°20'8 8.0
2014-Dec-14 03:33N 54°00' E 009°18'8 8.3
2014-Dec-14 02:34N 53°54' E 009°09'2 1.9
2014-Dec-14 01:34N 53°53' E 009°06'1110.8
2014-Dec-14 00:34N 53°50' E 008°48'1010.5
2014-Dec-13 23:33N 53°58' E 008°35'1110.9
2014-Dec-13 22:34N 53°59' E 008°17'1211.8
2014-Dec-13 21:34N 53°57' E 007°57'1110.9
2014-Dec-13 20:33N 53°55' E 007°39'4410.1
2014-Dec-13 16:12N 53°40' E 006°29'6 8.7
2014-Dec-13 15:34N 53°37' E 006°21'10 9.9
2014-Dec-13 14:34N 53°35' E 006°37'1111.1
2014-Dec-13 13:34N 53°28' E 006°52'1010.2
2014-Dec-13 12:34N 53°19' E 007°01'3 2.6
2014-Dec-13 11:31N 53°20' E 006°56'0 0.0
2014-Dec-13 10:31N 53°20' E 006°56'0 0.0
2014-Dec-13 09:31N 53°20' E 006°56'0 0.0
2014-Dec-13 08:31N 53°20' E 006°56'28202850.8
2014-Dec-13 07:32N 06°26' E 003°24'28202789.7
2014-Dec-13 06:31N 53°20' E 006°56'0 0.0
2014-Dec-13 05:31N 53°20' E 006°56'0 0.0
2014-Dec-13 04:31N 53°20' E 006°56'0 0.0
2014-Dec-13 03:31N 53°20' E 006°56'0 0.0
2014-Dec-13 02:31N 53°20' E 006°56'0 0.0
2014-Dec-13 01:31N 53°20' E 006°56'0 0.0
2014-Dec-13 00:31N 53°20' E 006°56'0 0.0
2014-Dec-12 23:31N 53°20' E 006°56'0 0.0
2014-Dec-12 22:31N 53°20' E 006°56'28202805.1
2014-Dec-12 21:31N 06°26' E 003°24'28202834.9
2014-Dec-12 20:31N 53°20' E 006°56'28202901.8
2014-Dec-12 19:33N 06°26' E 003°24'28202743.4
2014-Dec-12 18:31N 53°20' E 006°56'0 0.0
2014-Dec-12 17:31N 53°20' E 006°56'0 0.0
2014-Dec-12 16:31N 53°20' E 006°56'0 0.0
2014-Dec-12 15:31N 53°20' E 006°56'0 0.0
2014-Dec-12 14:31N 53°20' E 006°56'0 0.0
2014-Dec-12 13:31N 53°20' E 006°56'28202917.1
2014-Dec-12 12:33N 06°26' E 003°24'4 4.3
2014-Dec-12 11:33N 06°22' E 003°25'28242732.9
2014-Dec-12 10:31N 53°20' E 006°56'0 0.0
2014-Dec-12 09:31N 53°20' E 006°56'28202838.8
2014-Dec-12 08:32N 06°26' E 003°24'1 1.5
2014-Dec-12 07:33N 06°27' E 003°22'1 1.5
2014-Dec-12 06:32N 06°26' E 003°24'28202794.3
2014-Dec-12 05:31N 53°20' E 006°56'0 0.0
2014-Dec-12 04:31N 53°20' E 006°56'0 0.0
2014-Dec-12 03:31N 53°20' E 006°56'28202894.7
2014-Dec-12 02:33N 06°26' E 003°24'0 0.0
2014-Dec-12 01:33N 06°26' E 003°24'1 1.4
2014-Dec-12 00:33N 06°25' E 003°24'0 0.5
2014-Dec-11 23:33N 06°25' E 003°24'0 0.4
2014-Dec-11 22:33N 06°26' E 003°24'0 0.4
2014-Dec-11 21:33N 06°26' E 003°24'28202715.1
2014-Dec-11 20:31N 53°20' E 006°56'0 0.0
2014-Dec-11 19:31N 53°20' E 006°56'28192881.7
2014-Dec-11 18:32N 06°27' E 003°23'1 0.7
2014-Dec-11 17:33N 06°27' E 003°22'28192837.2
2014-Dec-11 16:34N 53°20' E 006°56'0 0.0
2014-Dec-11 15:34N 53°20' E 006°56'0 0.0
2014-Dec-11 14:34N 53°20' E 006°56'0 0.0
2014-Dec-11 13:34N 53°20' E 006°56'0 0.0
2014-Dec-11 12:34N 53°20' E 006°56'0 0.0
2014-Dec-11 11:33N 53°20' E 006°56'0 0.0
2014-Dec-11 10:34N 53°20' E 006°56'0 0.0
2014-Dec-11 09:34N 53°20' E 006°56'0 0.0
2014-Dec-11 07:34N 53°20' E 006°56'0 0.0
2014-Dec-11 06:34N 53°20' E 006°56'0 0.0
2014-Dec-11 05:34N 53°20' E 006°56'0 0.0
2014-Dec-11 04:34N 53°20' E 006°56'0 0.0
2014-Dec-11 03:34N 53°20' E 006°56'0 0.0
2014-Dec-11 02:34N 53°20' E 006°56'0 0.0
2014-Dec-11 01:34N 53°20' E 006°56'0 0.0
2014-Dec-11 00:34N 53°20' E 006°56'0 0.0
2014-Dec-10 23:33N 53°20' E 006°56'0 0.0
2014-Dec-10 22:34N 53°20' E 006°56'0 0.0
2014-Dec-10 21:34N 53°20' E 006°56'0 0.0
2014-Dec-10 20:34N 53°20' E 006°56'0 0.0
2014-Dec-10 19:34N 53°20' E 006°56'0 0.0
2014-Dec-10 18:34N 53°20' E 006°56'0 0.1
2014-Dec-10 17:33N 53°20' E 006°56'3 3.1
2014-Dec-10 16:34N 53°23' E 006°58'9 9.1
2014-Dec-10 15:34N 53°30' E 006°49'10 9.6
2014-Dec-10 14:34N 53°36' E 006°36'1010.4
2014-Dec-10 13:33N 53°37' E 006°18'1111.5
2014-Dec-10 12:33N 53°37' E 005°59'1212.0
2014-Dec-10 11:34N 53°35' E 005°39'1212.2
2014-Dec-10 10:34N 53°32' E 005°19'1212.3
2014-Dec-10 09:34N 53°28' E 004°60'1212.1
2014-Dec-10 08:34N 53°22' E 004°42'1312.5
2014-Dec-10 07:30N 53°10' E 004°33'1212.9
2014-Dec-10 06:33N 52°60' E 004°23'1313.1
2014-Dec-10 05:33N 52°48' E 004°12'2913.2
2014-Dec-10 03:23N 52°27' E 003°41'1113.1
2014-Dec-10 02:33N 52°16' E 003°35'4511.2
2014-Dec-09 22:33N 51°32' E 003°26'2110.5
2014-Dec-09 20:33N 51°23' E 003°56'17 5.6
2014-Dec-09 17:33N 51°16' E 004°21'2 1.5
2014-Dec-09 16:33N 51°15' E 004°22'0 0.0
2014-Dec-09 15:33N 51°15' E 004°22'0 0.0
2014-Dec-09 14:33N 51°15' E 004°22'0 0.0
2014-Dec-09 13:33N 51°15' E 004°22'0 0.0
2014-Dec-09 12:33N 51°15' E 004°22'0 0.0
2014-Dec-09 11:33N 51°15' E 004°22'0 0.0
2014-Dec-09 10:33N 51°15' E 004°22'0 0.0
2014-Dec-09 09:33N 51°15' E 004°22'0 0.0
2014-Dec-09 08:33N 51°15' E 004°22'0 0.0
2014-Dec-09 07:33N 51°15' E 004°22'0 0.0
2014-Dec-09 06:33N 51°15' E 004°22'26892688.4
2014-Dec-09 05:33N 06°26' E 003°24'26892689.9
2014-Dec-09 04:33N 51°15' E 004°22'0 0.0
2014-Dec-09 03:33N 51°15' E 004°22'0 0.0
2014-Dec-09 02:33N 51°15' E 004°22'0 0.0
2014-Dec-09 01:33N 51°15' E 004°22'0 0.0
2014-Dec-09 00:33N 51°15' E 004°22'0 0.0
2014-Dec-08 23:33N 51°15' E 004°22'0 0.0
2014-Dec-08 22:33N 51°15' E 004°22'0 0.0
2014-Dec-08 21:33N 51°15' E 004°22'0 0.0
2014-Dec-08 20:33N 51°15' E 004°22'0 0.0
2014-Dec-08 19:33N 51°15' E 004°22'0 0.0
2014-Dec-08 18:33N 51°15' E 004°22'0 0.0
2014-Dec-08 17:33N 51°15' E 004°22'0 0.0
2014-Dec-08 16:33N 51°15' E 004°22'0 0.0
2014-Dec-08 15:33N 51°15' E 004°22'0 0.0
2014-Dec-08 14:33N 51°15' E 004°22'0 0.0
2014-Dec-08 13:33N 51°15' E 004°22'0 0.0
2014-Dec-08 12:34N 51°15' E 004°22'0 0.0
2014-Dec-08 11:33N 51°15' E 004°22'0 0.0
2014-Dec-08 10:34N 51°15' E 004°22'0 0.0
2014-Dec-08 09:34N 51°15' E 004°22'  
Track history (hours):
 
Tides and Currents Weather Stations Pressure Air Temp Water Temp Dewpoint Dewpoint Depression Visibility Wind Speed Wind Dir Waves Ship Positions

Leonie

Last reported at 2014-Dec-18 09:31 UTC. Time now 2014-Dec-22 04:12 UTC.
Position N 59°58' E 024°04'.

Date/timePositionNaut miles runAvg speedWind from/ knotsBaromVisibWave heightAir tempDewpointWater temp
2014-Dec-18 09:31N 59°58' E 024°04'  
2014-Dec-15 06:07N 55°39' E 015°30'610.4
2014-Dec-15 05:30N 55°36' E 015°20'1010.6
2014-Dec-15 04:33N 55°31' E 015°04'1110.9
2014-Dec-15 03:33N 55°26' E 014°47'1111.0
2014-Dec-15 02:33N 55°18' E 014°33'1111.1
2014-Dec-15 01:33N 55°09' E 014°21'1111.3
2014-Dec-15 00:33N 55°01' E 014°09'1110.7
2014-Dec-14 23:33N 54°56' E 013°52'1110.9
2014-Dec-14 22:30N 54°52' E 013°33'3711.4
2014-Dec-14 19:16N 54°38' E 012°34'912.0
2014-Dec-14 18:33N 54°33' E 012°22'1111.3
2014-Dec-14 17:34N 54°25' E 012°09'1110.6
2014-Dec-14 16:34N 54°25' E 011°51'4411.0
2014-Dec-14 12:31N 54°32' E 010°35'1110.9
2014-Dec-14 11:33N 54°29' E 010°18'9 8.6
2014-Dec-14 10:33N 54°22' E 010°09'1 1.5
2014-Dec-14 09:33N 54°22' E 010°06'6 5.9
2014-Dec-14 08:33N 54°20' E 009°57'5 4.9
2014-Dec-14 07:33N 54°22' E 009°49'11 7.9
2014-Dec-14 06:10N 54°14' E 009°36'6 8.3
2014-Dec-14 05:27N 54°11' E 009°27'5 5.6
2014-Dec-14 04:32N 54°08' E 009°20'8 8.0
2014-Dec-14 03:33N 54°00' E 009°18'8 8.3
2014-Dec-14 02:34N 53°54' E 009°09'2 1.9
2014-Dec-14 01:34N 53°53' E 009°06'1110.8
2014-Dec-14 00:34N 53°50' E 008°48'1010.5
2014-Dec-13 23:33N 53°58' E 008°35'1110.9
2014-Dec-13 22:34N 53°59' E 008°17'1211.8
2014-Dec-13 21:34N 53°57' E 007°57'1110.9
2014-Dec-13 20:33N 53°55' E 007°39'4410.1
2014-Dec-13 16:12N 53°40' E 006°29'6 8.7
2014-Dec-13 15:34N 53°37' E 006°21'10 9.9
2014-Dec-13 14:34N 53°35' E 006°37'1111.1
2014-Dec-13 13:34N 53°28' E 006°52'1010.2
2014-Dec-13 12:34N 53°19' E 007°01'3 2.6
2014-Dec-13 11:31N 53°20' E 006°56'0 0.0
2014-Dec-13 10:31N 53°20' E 006°56'0 0.0
2014-Dec-13 09:31N 53°20' E 006°56'0 0.0
2014-Dec-13 08:31N 53°20' E 006°56'28202850.8
2014-Dec-13 07:32N 06°26' E 003°24'28202789.7
2014-Dec-13 06:31N 53°20' E 006°56'0 0.0
2014-Dec-13 05:31N 53°20' E 006°56'0 0.0
2014-Dec-13 04:31N 53°20' E 006°56'0 0.0
2014-Dec-13 03:31N 53°20' E 006°56'0 0.0
2014-Dec-13 02:31N 53°20' E 006°56'0 0.0
2014-Dec-13 01:31N 53°20' E 006°56'0 0.0
2014-Dec-13 00:31N 53°20' E 006°56'0 0.0
2014-Dec-12 23:31N 53°20' E 006°56'0 0.0
2014-Dec-12 22:31N 53°20' E 006°56'28202805.1
2014-Dec-12 21:31N 06°26' E 003°24'28202834.9
2014-Dec-12 20:31N 53°20' E 006°56'28202901.8
2014-Dec-12 19:33N 06°26' E 003°24'28202743.4
2014-Dec-12 18:31N 53°20' E 006°56'0 0.0
2014-Dec-12 17:31N 53°20' E 006°56'0 0.0
2014-Dec-12 16:31N 53°20' E 006°56'0 0.0
2014-Dec-12 15:31N 53°20' E 006°56'0 0.0
2014-Dec-12 14:31N 53°20' E 006°56'0 0.0
2014-Dec-12 13:31N 53°20' E 006°56'28202917.1
2014-Dec-12 12:33N 06°26' E 003°24'4 4.3
2014-Dec-12 11:33N 06°22' E 003°25'28242732.9
2014-Dec-12 10:31N 53°20' E 006°56'0 0.0
2014-Dec-12 09:31N 53°20' E 006°56'28202838.8
2014-Dec-12 08:32N 06°26' E 003°24'1 1.5
2014-Dec-12 07:33N 06°27' E 003°22'1 1.5
2014-Dec-12 06:32N 06°26' E 003°24'28202794.3
2014-Dec-12 05:31N 53°20' E 006°56'0 0.0
2014-Dec-12 04:31N 53°20' E 006°56'0 0.0
2014-Dec-12 03:31N 53°20' E 006°56'28202894.7
2014-Dec-12 02:33N 06°26' E 003°24'0 0.0
2014-Dec-12 01:33N 06°26' E 003°24'1 1.4
2014-Dec-12 00:33N 06°25' E 003°24'0 0.5
2014-Dec-11 23:33N 06°25' E 003°24'0 0.4
2014-Dec-11 22:33N 06°26' E 003°24'0 0.4
2014-Dec-11 21:33N 06°26' E 003°24'28202715.1
2014-Dec-11 20:31N 53°20' E 006°56'0 0.0
2014-Dec-11 19:31N 53°20' E 006°56'28192881.7
2014-Dec-11 18:32N 06°27' E 003°23'1 0.7
2014-Dec-11 17:33N 06°27' E 003°22'28192837.2
2014-Dec-11 16:34N 53°20' E 006°56'0 0.0
2014-Dec-11 15:34N 53°20' E 006°56'0 0.0
2014-Dec-11 14:34N 53°20' E 006°56'0 0.0
2014-Dec-11 13:34N 53°20' E 006°56'0 0.0
2014-Dec-11 12:34N 53°20' E 006°56'0 0.0
2014-Dec-11 11:33N 53°20' E 006°56'0 0.0
2014-Dec-11 10:34N 53°20' E 006°56'0 0.0
2014-Dec-11 09:34N 53°20' E 006°56'0 0.0
2014-Dec-11 07:34N 53°20' E 006°56'0 0.0
2014-Dec-11 06:34N 53°20' E 006°56'0 0.0
2014-Dec-11 05:34N 53°20' E 006°56'0 0.0
2014-Dec-11 04:34N 53°20' E 006°56'0 0.0
2014-Dec-11 03:34N 53°20' E 006°56'0 0.0
2014-Dec-11 02:34N 53°20' E 006°56'0 0.0
2014-Dec-11 01:34N 53°20' E 006°56'0 0.0
2014-Dec-11 00:34N 53°20' E 006°56'0 0.0
2014-Dec-10 23:33N 53°20' E 006°56'0 0.0
2014-Dec-10 22:34N 53°20' E 006°56'0 0.0
2014-Dec-10 21:34N 53°20' E 006°56'0 0.0
2014-Dec-10 20:34N 53°20' E 006°56'0 0.0
2014-Dec-10 19:34N 53°20' E 006°56'0 0.0
2014-Dec-10 18:34N 53°20' E 006°56'0 0.1
2014-Dec-10 17:33N 53°20' E 006°56'3 3.1
2014-Dec-10 16:34N 53°23' E 006°58'9 9.1
2014-Dec-10 15:34N 53°30' E 006°49'10 9.6
2014-Dec-10 14:34N 53°36' E 006°36'1010.4
2014-Dec-10 13:33N 53°37' E 006°18'1111.5
2014-Dec-10 12:33N 53°37' E 005°59'1212.0
2014-Dec-10 11:34N 53°35' E 005°39'1212.2
2014-Dec-10 10:34N 53°32' E 005°19'1212.3
2014-Dec-10 09:34N 53°28' E 004°60'1212.1
2014-Dec-10 08:34N 53°22' E 004°42'1312.5
2014-Dec-10 07:30N 53°10' E 004°33'1212.9
2014-Dec-10 06:33N 52°60' E 004°23'1313.1
2014-Dec-10 05:33N 52°48' E 004°12'2913.2
2014-Dec-10 03:23N 52°27' E 003°41'1113.1
2014-Dec-10 02:33N 52°16' E 003°35'4511.2
2014-Dec-09 22:33N 51°32' E 003°26'2110.5
2014-Dec-09 20:33N 51°23' E 003°56'17 5.6
2014-Dec-09 17:33N 51°16' E 004°21'2 1.5
2014-Dec-09 16:33N 51°15' E 004°22'0 0.0
2014-Dec-09 15:33N 51°15' E 004°22'0 0.0
2014-Dec-09 14:33N 51°15' E 004°22'0 0.0
2014-Dec-09 13:33N 51°15' E 004°22'0 0.0
2014-Dec-09 12:33N 51°15' E 004°22'0 0.0
2014-Dec-09 11:33N 51°15' E 004°22'0 0.0
2014-Dec-09 10:33N 51°15' E 004°22'0 0.0
2014-Dec-09 09:33N 51°15' E 004°22'0 0.0
2014-Dec-09 08:33N 51°15' E 004°22'0 0.0
2014-Dec-09 07:33N 51°15' E 004°22'0 0.0
2014-Dec-09 06:33N 51°15' E 004°22'26892688.4
2014-Dec-09 05:33N 06°26' E 003°24'26892689.9
2014-Dec-09 04:33N 51°15' E 004°22'0 0.0
2014-Dec-09 03:33N 51°15' E 004°22'0 0.0
2014-Dec-09 02:33N 51°15' E 004°22'0 0.0
2014-Dec-09 01:33N 51°15' E 004°22'0 0.0
2014-Dec-09 00:33N 51°15' E 004°22'0 0.0
2014-Dec-08 23:33N 51°15' E 004°22'0 0.0
2014-Dec-08 22:33N 51°15' E 004°22'0 0.0
2014-Dec-08 21:33N 51°15' E 004°22'0 0.0
2014-Dec-08 20:33N 51°15' E 004°22'0 0.0
2014-Dec-08 19:33N 51°15' E 004°22'0 0.0
2014-Dec-08 18:33N 51°15' E 004°22'0 0.0
2014-Dec-08 17:33N 51°15' E 004°22'0 0.0
2014-Dec-08 16:33N 51°15' E 004°22'0 0.0
2014-Dec-08 15:33N 51°15' E 004°22'0 0.0
2014-Dec-08 14:33N 51°15' E 004°22'0 0.0
2014-Dec-08 13:33N 51°15' E 004°22'0 0.0
2014-Dec-08 12:34N 51°15' E 004°22'0 0.0
2014-Dec-08 11:33N 51°15' E 004°22'0 0.0
2014-Dec-08 10:34N 51°15' E 004°22'0 0.0
2014-Dec-08 09:34N 51°15' E 004°22'  

Dump ship's entire track history